Time;durP1;ratioP1;P1;durP2;ratioP2;P2;SDS_P1;SDS_P2;PMS_P1;PMS_P2;Temp;Humidity;BMP_temperature;BMP_pressure;BME280_temperature;BME280_humidity;BME280_pressure;Samples;Min_cycle;Max_cycle;Signal;HPM_P1;HPM_P2
2021/04/16 00:00:37;;;;;;;;;;;;;;;2.98;71.42;101692.25;5077583;28;19916;-75
2021/04/16 00:03:03;;;;;;;;;;;;;;;2.98;70.98;101689.53;5068826;28;19977;-76
2021/04/16 00:05:28;;;;;;;;;;;;;;;2.98;70.20;101695.00;5058171;28;19912;-75
2021/04/16 00:07:54;;;;;;;;;;;;;;;2.95;70.86;101687.22;5074743;28;19922;-76
2021/04/16 00:10:35;;;;;;;;;;;;;;;2.94;69.96;101691.03;5079243;28;20363;-75
2021/04/16 00:13:01;;;;;;;;;;;;;;;2.93;70.03;101687.44;5080789;28;19942;-75
2021/04/16 00:15:27;;;;;;;;;;;;;;;2.87;70.12;101688.28;5080266;28;19920;-76
2021/04/16 00:17:53;;;;;;;;;;;;;;;2.87;70.53;101682.78;5071939;28;19921;-76
2021/04/16 00:20:19;;;;;;;;;;;;;;;2.78;70.51;101682.19;5066676;28;20280;-76
2021/04/16 00:22:45;;;;;;;;;;;;;;;2.67;72.08;101672.72;5075060;28;19917;-76
2021/04/16 00:25:12;;;;;;;;;;;;;;;2.55;72.32;101674.41;5064313;28;20443;-75
2021/04/16 00:27:37;;;;;;;;;;;;;;;2.55;71.82;101668.09;5080163;28;20000;-75
2021/04/16 00:30:03;;;;;;;;;;;;;;;2.58;71.86;101671.25;5080118;28;19952;-77
2021/04/16 00:32:28;;;;;;;;;;;;;;;2.55;71.76;101673.56;5061339;28;20283;-75
2021/04/16 00:34:54;;;;;;;;;;;;;;;2.49;71.72;101663.47;5098122;28;20031;-75
2021/04/16 00:37:19;;;;;;;;;;;;;;;2.43;72.25;101670.63;5079986;28;19920;-76
2021/04/16 00:39:44;;;;;;;;;;;;;;;2.46;72.04;101667.47;5079121;28;19916;-76
2021/04/16 00:42:10;;;;;;;;;;;;;;;2.38;72.32;101671.25;5080706;28;19954;-75
2021/04/16 00:44:36;;;;;;;;;;;;;;;2.31;73.84;101670.41;5072819;28;19916;-75
2021/04/16 00:47:02;;;;;;;;;;;;;;;2.32;72.80;101660.31;5055972;28;19924;-76
2021/04/16 00:49:28;;;;;;;;;;;;;;;2.21;74.00;101656.28;5046655;28;19923;-75
2021/04/16 00:51:54;;;;;;;;;;;;;;;2.20;73.73;101651.84;5043755;28;19973;-75
2021/04/16 00:54:21;;;;;;;;;;;;;;;2.14;74.33;101663.66;5035548;28;19913;-76
2021/04/16 00:56:47;;;;;;;;;;;;;;;2.01;76.90;101648.06;5042630;28;20453;-76
2021/04/16 00:59:13;;;;;;;;;;;;;;;1.96;77.07;101648.69;5050399;28;19951;-75
2021/04/16 01:01:38;;;;;;;;;;;;;;;1.90;77.65;101643.22;5077912;28;19932;-76
2021/04/16 01:04:04;;;;;;;;;;;;;;;1.95;75.35;101641.53;5079843;28;19948;-76
2021/04/16 01:06:29;;;;;;;;;;;;;;;1.94;76.17;101636.25;5079685;28;19968;-76
2021/04/16 01:08:54;;;;;;;;;;;;;;;1.92;76.65;101636.47;5061981;28;19916;-76
2021/04/16 01:11:20;;;;;;;;;;;;;;;1.95;74.97;101633.31;5062299;28;19957;-75
2021/04/16 01:13:46;;;;;;;;;;;;;;;1.96;75.71;101634.16;5054109;28;19916;-75
2021/04/16 01:16:13;;;;;;;;;;;;;;;1.86;77.26;101630.97;5050492;28;19924;-75
2021/04/16 01:18:39;;;;;;;;;;;;;;;1.89;76.91;101625.91;5060010;28;20319;-76
2021/04/16 01:21:06;;;;;;;;;;;;;;;1.88;75.97;101621.50;5079703;28;19916;-75
2021/04/16 01:23:31;;;;;;;;;;;;;;;1.86;76.14;101628.22;5063734;28;20428;-76
2021/04/16 01:25:56;;;;;;;;;;;;;;;1.92;75.64;101628.25;5079440;28;19943;-75
2021/04/16 01:28:22;;;;;;;;;;;;;;;1.99;74.54;101628.25;5061454;28;20011;-75
2021/04/16 01:31:00;;;;;;;;;;;;;;;2.04;73.72;101627.63;5079702;28;20368;-76
2021/04/16 01:33:29;;;;;;;;;;;;;;;2.04;73.76;101627.63;5077419;28;19917;-76
2021/04/16 01:35:54;;;;;;;;;;;;;;;2.05;73.73;101632.03;5046261;28;19927;-75
2021/04/16 01:38:20;;;;;;;;;;;;;;;2.00;73.98;101627.19;5077603;28;19916;-75
2021/04/16 01:40:45;;;;;;;;;;;;;;;2.01;73.71;101624.25;5041297;28;19923;-75
2021/04/16 01:43:24;;;;;;;;;;;;;;;2.05;73.02;101632.88;5070620;28;19991;-76
2021/04/16 01:45:57;;;;;;;;;;;;;;;2.08;72.71;101624.22;5062340;28;19923;-75
2021/04/16 01:48:23;;;;;;;;;;;;;;;2.04;72.54;101616.66;5073033;28;20360;-75
2021/04/16 01:50:48;;;;;;;;;;;;;;;2.04;72.58;101613.94;5078635;28;19947;-75
2021/04/16 01:53:13;;;;;;;;;;;;;;;2.01;72.53;101621.50;5062330;28;19916;-75
2021/04/16 01:55:39;;;;;;;;;;;;;;;2.00;72.41;101618.97;5062818;28;19941;-75
2021/04/16 01:58:04;;;;;;;;;;;;;;;2.02;72.26;101619.59;5060474;28;19923;-75
2021/04/16 02:00:31;;;;;;;;;;;;;;;2.04;72.09;101614.75;5068737;28;20379;-75
2021/04/16 02:02:56;;;;;;;;;;;;;;;1.96;71.95;101621.28;5044398;28;19923;-75
2021/04/16 02:05:21;;;;;;;;;;;;;;;1.95;71.72;101618.75;5079446;28;19916;-76
2021/04/16 02:07:47;;;;;;;;;;;;;;;1.93;71.57;101618.97;5045083;28;19913;-75
2021/04/16 02:10:12;;;;;;;;;;;;;;;1.86;72.04;101623.59;5076016;28;19924;-75
2021/04/16 02:12:38;;;;;;;;;;;;;;;1.81;72.13;101620.63;5071439;28;19934;-75
2021/04/16 02:15:03;;;;;;;;;;;;;;;1.82;71.96;101629.72;5074237;28;20007;-76
2021/04/16 02:17:29;;;;;;;;;;;;;;;1.72;72.21;101622.72;5072414;28;19918;-75
2021/04/16 02:19:54;;;;;;;;;;;;;;;1.62;73.97;101619.56;5052870;28;19916;-76
2021/04/16 02:22:20;;;;;;;;;;;;;;;1.59;73.52;101621.84;5075496;28;19950;-75
2021/04/16 02:24:45;;;;;;;;;;;;;;;1.54;73.69;101619.75;5056508;28;19912;-75
2021/04/16 02:27:11;;;;;;;;;;;;;;;1.50;73.69;101619.31;5063520;28;19927;-75
2021/04/16 02:29:36;;;;;;;;;;;;;;;1.53;73.64;101618.06;5060614;28;19923;-75
2021/04/16 02:32:02;;;;;;;;;;;;;;;1.56;73.18;101618.50;5078448;28;19994;-75
2021/04/16 02:34:28;;;;;;;;;;;;;;;1.55;73.39;101618.69;5044653;28;20354;-75
2021/04/16 02:36:54;;;;;;;;;;;;;;;1.56;72.86;101617.63;5072625;28;19973;-75
2021/04/16 02:39:19;;;;;;;;;;;;;;;1.58;72.47;101604.59;5074334;28;19952;-75
2021/04/16 02:41:45;;;;;;;;;;;;;;;1.59;72.09;101605.44;5061634;28;20380;-75
2021/04/16 02:44:10;;;;;;;;;;;;;;;1.53;72.21;101607.97;5078720;28;19916;-75
2021/04/16 02:46:35;;;;;;;;;;;;;;;1.47;72.58;101614.25;5041677;28;19921;-75
2021/04/16 02:49:01;;;;;;;;;;;;;;;1.49;72.54;101608.59;5076984;28;19928;-75
2021/04/16 02:51:26;;;;;;;;;;;;;;;1.44;72.63;101603.72;5075695;28;19926;-75
2021/04/16 02:53:52;;;;;;;;;;;;;;;1.40;72.59;101596.16;5060164;28;20061;-75
2021/04/16 02:56:17;;;;;;;;;;;;;;;1.39;72.71;101613.59;5076631;28;20385;-75
2021/04/16 02:58:42;;;;;;;;;;;;;;;1.36;72.83;101611.28;5042516;28;19924;-75
2021/04/16 03:01:08;;;;;;;;;;;;;;;1.36;72.94;101601.16;5044963;28;19924;-75
2021/04/16 03:03:35;;;;;;;;;;;;;;;1.29;73.17;101603.91;5059572;28;19916;-75
2021/04/16 03:06:01;;;;;;;;;;;;;;;1.28;73.05;101602.22;5050962;28;20352;-75
2021/04/16 03:08:26;;;;;;;;;;;;;;;1.29;73.01;101611.28;5092006;28;19951;-75
2021/04/16 03:10:51;;;;;;;;;;;;;;;1.28;72.88;101606.81;5061717;28;19923;-75
2021/04/16 03:13:17;;;;;;;;;;;;;;;1.26;73.16;101600.75;5044485;28;19942;-77
2021/04/16 03:15:42;;;;;;;;;;;;;;;1.28;72.80;101598.63;5094259;28;19943;-75
2021/04/16 03:18:07;;;;;;;;;;;;;;;1.21;73.13;101603.25;5057333;28;19920;-75
2021/04/16 03:20:33;;;;;;;;;;;;;;;1.22;72.89;101604.91;5077714;28;19923;-76
2021/04/16 03:22:58;;;;;;;;;;;;;;;1.19;72.68;101606.16;5044837;28;20371;-75
2021/04/16 03:25:23;;;;;;;;;;;;;;;1.15;73.08;101599.44;5075042;28;19922;-75
2021/04/16 03:27:49;;;;;;;;;;;;;;;1.15;72.65;101604.91;5077255;28;19924;-75
2021/04/16 03:30:15;;;;;;;;;;;;;;;1.16;72.72;101611.22;5076450;28;19916;-75
2021/04/16 03:32:41;;;;;;;;;;;;;;;1.08;73.23;101599.38;5075416;28;19916;-75
2021/04/16 03:35:06;;;;;;;;;;;;;;;1.09;72.85;101603.84;5056440;28;19921;-75
2021/04/16 03:37:32;;;;;;;;;;;;;;;1.05;72.79;101605.28;5041192;28;20003;-75
2021/04/16 03:39:57;;;;;;;;;;;;;;;1.05;73.01;101608.00;5086004;28;19924;-75
2021/04/16 03:42:22;;;;;;;;;;;;;;;1.01;72.88;101608.66;5054686;28;19931;-75
2021/04/16 03:44:48;;;;;;;;;;;;;;;0.98;72.93;101604.41;5057726;28;19966;-75
2021/04/16 03:47:13;;;;;;;;;;;;;;;0.98;73.13;101598.94;5076686;28;20404;-75
2021/04/16 03:49:38;;;;;;;;;;;;;;;0.99;72.92;101597.88;5059673;28;20011;-75
2021/04/16 03:52:04;;;;;;;;;;;;;;;0.97;72.91;101594.50;5094754;28;20007;-75
2021/04/16 03:54:29;;;;;;;;;;;;;;;0.91;72.78;101595.31;5060170;28;19924;-75
2021/04/16 03:56:54;;;;;;;;;;;;;;;0.97;72.53;101591.78;5073803;28;19920;-75
2021/04/16 03:59:21;;;;;;;;;;;;;;;0.96;72.53;101601.03;5075339;28;20322;-75
2021/04/16 04:01:46;;;;;;;;;;;;;;;0.87;72.71;101600.38;5061080;28;19916;-75
2021/04/16 04:04:12;;;;;;;;;;;;;;;0.86;72.91;101601.44;5093900;28;19923;-75
2021/04/16 04:06:37;;;;;;;;;;;;;;;0.90;72.45;101593.66;5058190;28;19923;-75
2021/04/16 04:09:06;;;;;;;;;;;;;;;0.84;72.71;101598.03;5075983;28;19920;-75
2021/04/16 04:11:31;;;;;;;;;;;;;;;0.86;72.14;101598.69;5044652;28;19916;-75
2021/04/16 04:13:57;;;;;;;;;;;;;;;0.85;72.17;101599.72;5058999;28;19922;-75
2021/04/16 04:16:23;;;;;;;;;;;;;;;0.79;72.34;101602.44;5076143;28;19920;-75
2021/04/16 04:18:48;;;;;;;;;;;;;;;0.77;72.50;101608.09;5055870;28;19916;-75
2021/04/16 04:21:13;;;;;;;;;;;;;;;0.77;72.21;101601.78;5075602;28;19963;-75
2021/04/16 04:23:39;;;;;;;;;;;;;;;0.73;72.29;101603.25;5063321;28;19916;-75
2021/04/16 04:26:04;;;;;;;;;;;;;;;0.70;72.21;101592.69;5074882;28;19963;-75
2021/04/16 04:28:30;;;;;;;;;;;;;;;0.73;72.03;101598.63;5066156;28;20011;-75
2021/04/16 04:30:55;;;;;;;;;;;;;;;0.68;71.73;101598.38;5073262;28;19923;-75
2021/04/16 04:33:20;;;;;;;;;;;;;;;0.66;71.79;101601.31;5069799;28;19924;-75
2021/04/16 04:35:46;;;;;;;;;;;;;;;0.63;71.78;101596.25;5063712;28;19927;-76
2021/04/16 04:38:11;;;;;;;;;;;;;;;0.57;71.93;101602.53;5077543;28;20295;-75
2021/04/16 04:40:36;;;;;;;;;;;;;;;0.63;71.57;101598.97;5060376;28;19916;-75
2021/04/16 04:43:02;;;;;;;;;;;;;;;0.57;71.64;101609.88;5059883;28;19979;-75
2021/04/16 04:45:27;;;;;;;;;;;;;;;0.56;71.67;101608.22;5062521;28;20459;-75
2021/04/16 04:47:53;;;;;;;;;;;;;;;0.54;71.73;101608.41;5062516;28;19921;-75
2021/04/16 04:50:19;;;;;;;;;;;;;;;0.52;71.70;101605.00;5078669;28;19912;-75
2021/04/16 04:52:45;;;;;;;;;;;;;;;0.55;71.60;101607.34;5078848;28;19916;-75
2021/04/16 04:55:11;;;;;;;;;;;;;;;0.52;71.64;101599.53;5043798;28;19920;-75
2021/04/16 04:57:37;;;;;;;;;;;;;;;0.53;71.55;101600.38;5078841;28;19924;-75
2021/04/16 05:00:03;;;;;;;;;;;;;;;0.44;71.76;101607.91;5079308;28;19912;-75
2021/04/16 05:02:28;;;;;;;;;;;;;;;0.41;72.21;101613.75;5050685;28;19916;-75
2021/04/16 05:04:54;;;;;;;;;;;;;;;0.40;72.50;101606.63;5063225;28;19922;-75
2021/04/16 05:07:19;;;;;;;;;;;;;;;0.41;72.58;101613.75;5063298;28;19916;-75
2021/04/16 05:09:45;;;;;;;;;;;;;;;0.37;72.54;101607.88;5080538;28;19916;-75
2021/04/16 05:12:10;;;;;;;;;;;;;;;0.38;72.68;101603.25;5077131;28;19920;-75
2021/04/16 05:14:36;;;;;;;;;;;;;;;0.38;72.40;101605.97;5061513;28;20602;-75
2021/04/16 05:17:01;;;;;;;;;;;;;;;0.36;72.39;101608.06;5061978;28;19935;-75
2021/04/16 05:19:26;;;;;;;;;;;;;;;0.34;72.48;101604.69;5094343;28;20437;-75
2021/04/16 05:21:55;;;;;;;;;;;;;;;0.32;72.61;101607.63;5077368;28;19973;-75
2021/04/16 05:24:20;;;;;;;;;;;;;;;0.35;72.78;101606.38;5039484;28;19919;-75
2021/04/16 05:26:45;;;;;;;;;;;;;;;0.37;72.32;101612.50;5044395;28;20514;-75
2021/04/16 05:29:11;;;;;;;;;;;;;;;0.37;72.54;101607.03;5071551;28;19916;-75
2021/04/16 05:31:36;;;;;;;;;;;;;;;0.33;72.77;101616.66;5057229;28;19917;-75
2021/04/16 05:34:02;;;;;;;;;;;;;;;0.40;73.43;101612.09;5044744;28;20018;-75
2021/04/16 05:36:27;;;;;;;;;;;;;;;0.53;74.34;101617.66;5075789;28;19946;-75
2021/04/16 05:38:53;;;;;;;;;;;;;;;0.61;74.84;101625.69;5077874;28;19917;-75
2021/04/16 05:41:18;;;;;;;;;;;;;;;0.71;75.27;101625.31;5072224;28;19916;-75
2021/04/16 05:43:43;;;;;;;;;;;;;;;0.82;75.66;101627.47;5056934;28;20289;-74
2021/04/16 05:46:09;;;;;;;;;;;;;;;0.86;75.97;101627.91;5061765;28;19942;-75
2021/04/16 05:48:34;;;;;;;;;;;;;;;0.96;76.36;101630.28;5060530;28;19998;-74
2021/04/16 05:50:59;;;;;;;;;;;;;;;1.03;76.37;101632.03;5043097;28;19920;-74
2021/04/16 05:53:25;;;;;;;;;;;;;;;1.11;76.74;101640.06;5045463;28;19924;-75
2021/04/16 05:55:50;;;;;;;;;;;;;;;1.20;76.92;101629.78;5061330;28;19924;-75
2021/04/16 05:58:15;;;;;;;;;;;;;;;1.33;76.95;101635.25;5095219;28;20308;-74
2021/04/16 06:00:41;;;;;;;;;;;;;;;1.41;76.84;101639.72;5096856;28;19916;-75
2021/04/16 06:03:06;;;;;;;;;;;;;;;1.52;76.82;101646.50;5079093;28;19916;-75
2021/04/16 06:05:31;;;;;;;;;;;;;;;1.60;76.88;101634.50;5097502;28;19916;-75
2021/04/16 06:07:57;;;;;;;;;;;;;;;1.72;76.83;101644.63;5088756;28;19959;-75
2021/04/16 06:10:23;;;;;;;;;;;;;;;1.79;77.31;101637.28;5078498;28;19919;-74
2021/04/16 06:12:48;;;;;;;;;;;;;;;1.93;76.60;101649.09;5076688;28;19924;-75
2021/04/16 06:15:14;;;;;;;;;;;;;;;2.04;76.37;101646.81;5075984;28;19928;-75
2021/04/16 06:17:40;;;;;;;;;;;;;;;2.16;76.31;101647.84;5076003;28;19916;-75
2021/04/16 06:20:06;;;;;;;;;;;;;;;2.29;75.98;101650.59;5069529;28;19919;-75
2021/04/16 06:22:31;;;;;;;;;;;;;;;2.40;76.11;101644.47;5063849;28;19916;-75
2021/04/16 06:24:56;;;;;;;;;;;;;;;2.50;76.95;101640.44;5076751;28;20335;-76
2021/04/16 06:27:22;;;;;;;;;;;;;;;2.60;76.72;101640.88;5040153;28;19924;-76
2021/04/16 06:29:47;;;;;;;;;;;;;;;2.69;81.63;101651.38;5070895;28;20300;-76
2021/04/16 06:32:14;;;;;;;;;;;;;;;2.80;80.40;101649.06;5094121;28;19931;-75
2021/04/16 06:34:39;;;;;;;;;;;;;;;2.90;80.32;101657.69;5088246;28;19912;-71
2021/04/16 06:37:04;;;;;;;;;;;;;;;3.02;80.24;101658.69;5095090;28;20011;-72
2021/04/16 06:39:30;;;;;;;;;;;;;;;3.14;80.77;101650.63;5060211;28;19919;-73
2021/04/16 06:41:55;;;;;;;;;;;;;;;3.26;80.19;101654.41;5058942;28;19923;-73
2021/04/16 06:44:22;;;;;;;;;;;;;;;3.39;79.01;101663.63;5058403;28;20424;-73
2021/04/16 06:46:55;;;;;;;;;;;;;;;3.53;78.20;101662.50;5077998;28;19920;-73
2021/04/16 06:49:24;;;;;;;;;;;;;;;3.67;80.28;101675.09;5051683;28;19984;-73
2021/04/16 06:52:01;;;;;;;;;;;;;;;3.79;77.43;101670.59;5074773;28;19995;-72
2021/04/16 06:54:28;;;;;;;;;;;;;;;3.92;78.31;101660.56;5078346;28;19916;-73
2021/04/16 06:56:54;;;;;;;;;;;;;;;4.10;77.78;101673.56;5073006;28;20368;-73
2021/04/16 06:59:26;;;;;;;;;;;;;;;4.19;78.11;101673.06;5071235;28;19923;-73
2021/04/16 07:01:54;;;;;;;;;;;;;;;4.32;77.51;101674.88;5072990;28;19921;-73
2021/04/16 07:04:21;;;;;;;;;;;;;;;4.47;76.59;101674.53;5048974;28;19924;-73
2021/04/16 07:06:47;;;;;;;;;;;;;;;4.59;77.23;101677.38;5056939;28;19916;-73
2021/04/16 07:09:32;;;;;;;;;;;;;;;4.72;77.76;101666.25;5068140;28;20558;-73
2021/04/16 07:12:21;;;;;;;;;;;;;;;4.86;76.79;101676.06;5076034;28;19943;-73
2021/04/16 07:14:48;;;;;;;;;;;;;;;5.00;76.03;101684.19;5039451;28;20414;-73
2021/04/16 07:17:14;;;;;;;;;;;;;;;5.19;75.35;101677.63;5075940;28;20023;-73
2021/04/16 07:19:39;;;;;;;;;;;;;;;5.26;75.09;101680.28;5085339;28;19923;-73
2021/04/16 07:22:06;;;;;;;;;;;;;;;5.42;75.28;101676.91;5087621;28;20283;-73
2021/04/16 07:24:32;;;;;;;;;;;;;;;5.54;75.16;101680.56;5058390;28;19960;-73
2021/04/16 07:26:58;;;;;;;;;;;;;;;5.69;75.45;101671.06;5058881;28;19916;-73
2021/04/16 07:29:44;;;;;;;;;;;;;;;5.82;73.39;101677.22;5076105;28;19923;-73
2021/04/16 07:32:13;;;;;;;;;;;;;;;5.99;73.87;101680.19;5094702;28;19922;-73
2021/04/16 07:34:46;;;;;;;;;;;;;;;6.14;73.00;101674.22;5050764;28;19924;-73
2021/04/16 07:37:13;;;;;;;;;;;;;;;6.28;73.08;101674.03;5076929;28;19924;-73
2021/04/16 07:39:44;;;;;;;;;;;;;;;6.41;73.02;101680.16;5073053;28;19916;-73
2021/04/16 07:42:09;;;;;;;;;;;;;;;6.55;72.50;101679.94;5060255;28;19948;-73
2021/04/16 07:44:37;;;;;;;;;;;;;;;6.66;72.12;101673.59;5062905;28;19923;-73
2021/04/16 07:47:03;;;;;;;;;;;;;;;6.77;71.55;101672.75;5074487;28;19970;-73
2021/04/16 07:49:30;;;;;;;;;;;;;;;6.83;71.45;101677.31;5058771;28;19912;-73
2021/04/16 07:51:57;;;;;;;;;;;;;;;7.00;71.58;101682.09;5049958;28;19916;-73
2021/04/16 07:54:29;;;;;;;;;;;;;;;7.10;71.15;101682.31;5076366;28;20019;-73
2021/04/16 07:57:11;;;;;;;;;;;;;;;7.25;70.65;101679.88;5075171;28;19959;-73
2021/04/16 07:59:52;;;;;;;;;;;;;;;7.37;70.49;101680.69;5053348;28;20058;-73
2021/04/16 08:02:17;;;;;;;;;;;;;;;7.47;70.17;101677.31;5055412;28;19917;-73
2021/04/16 08:04:43;;;;;;;;;;;;;;;7.59;69.48;101674.50;5051508;28;19923;-73
2021/04/16 08:07:18;;;;;;;;;;;;;;;7.65;69.59;101678.22;5078541;28;19951;-73
2021/04/16 08:09:44;;;;;;;;;;;;;;;7.75;69.18;101679.25;5077411;28;19923;-73
2021/04/16 08:12:09;;;;;;;;;;;;;;;7.94;68.55;101674.38;5096562;28;19916;-73
2021/04/16 08:14:36;;;;;;;;;;;;;;;8.00;68.80;101673.38;5080997;28;19956;-73
2021/04/16 08:17:21;;;;;;;;;;;;;;;8.13;68.18;101674.97;5070772;28;19964;-71
2021/04/16 08:19:46;;;;;;;;;;;;;;;8.20;67.61;101663.75;5055178;28;19912;-76
2021/04/16 08:22:16;;;;;;;;;;;;;;;8.32;67.33;101671.97;5060727;28;20003;-75
2021/04/16 08:24:45;;;;;;;;;;;;;;;8.36;67.12;101676.78;5062148;28;19920;-75
2021/04/16 08:27:22;;;;;;;;;;;;;;;8.42;66.68;101670.25;5079385;28;19919;-75
2021/04/16 08:29:53;;;;;;;;;;;;;;;8.55;66.71;101671.84;5079743;28;19916;-75
2021/04/16 08:32:21;;;;;;;;;;;;;;;8.65;66.00;101672.00;5056016;28;19979;-75
2021/04/16 08:34:48;;;;;;;;;;;;;;;8.81;65.70;101672.25;5089668;28;19920;-75
2021/04/16 08:37:24;;;;;;;;;;;;;;;8.89;65.47;101666.28;5059982;28;20380;-76
2021/04/16 08:39:50;;;;;;;;;;;;;;;9.03;65.91;101672.31;5090805;28;19916;-77
2021/04/16 08:42:22;;;;;;;;;;;;;;;8.90;65.54;101673.50;5053653;28;19926;-75
2021/04/16 08:44:48;;;;;;;;;;;;;;;9.14;64.93;101666.63;5090171;28;19923;-76
2021/04/16 08:47:21;;;;;;;;;;;;;;;9.25;64.90;101672.31;5077955;28;19969;-76
2021/04/16 08:49:46;;;;;;;;;;;;;;;9.36;64.95;101663.00;5076434;28;19999;-76
2021/04/16 08:52:16;;;;;;;;;;;;;;;9.45;64.31;101664.25;5039793;28;19955;-76
2021/04/16 08:54:41;;;;;;;;;;;;;;;9.44;63.84;101662.56;5036192;28;19924;-76
2021/04/16 08:57:13;;;;;;;;;;;;;;;9.61;63.40;101655.03;5054642;28;19935;-76
2021/04/16 08:59:57;;;;;;;;;;;;;;;9.65;63.33;101660.06;5079707;28;19916;-72
2021/04/16 09:02:23;;;;;;;;;;;;;;;9.90;63.74;101662.28;5094202;28;19920;-71
2021/04/16 09:04:52;;;;;;;;;;;;;;;9.94;62.53;101663.41;5060172;28;19916;-71
2021/04/16 09:07:34;;;;;;;;;;;;;;;10.03;63.38;101657.13;5045714;28;20011;-71
2021/04/16 09:10:02;;;;;;;;;;;;;;;10.13;62.65;101658.34;5057237;28;19974;-71
2021/04/16 09:12:36;;;;;;;;;;;;;;;10.22;62.41;101653.97;5071294;28;19928;-71
2021/04/16 09:15:02;;;;;;;;;;;;;;;10.10;61.04;101658.84;5095267;28;20007;-71
2021/04/16 09:17:56;;;;;;;;;;;;;;;10.05;60.92;101662.41;5078958;28;19955;-71
2021/04/16 09:20:24;;;;;;;;;;;;;;;10.15;58.23;101662.53;5095104;28;19923;-71
2021/04/16 09:22:53;;;;;;;;;;;;;;;10.00;57.11;101654.91;5077920;28;19922;-71
2021/04/16 09:25:38;;;;;;;;;;;;;;;10.02;56.71;101660.16;5071521;28;19912;-71
2021/04/16 09:28:21;;;;;;;;;;;;;;;9.91;56.13;101667.53;5074550;28;19916;-71
2021/04/16 09:30:49;;;;;;;;;;;;;;;10.20;55.01;101664.53;5058388;28;19916;-71
2021/04/16 09:33:19;;;;;;;;;;;;;;;10.19;55.34;101665.59;5078887;28;19919;-71
2021/04/16 09:35:47;;;;;;;;;;;;;;;10.27;55.87;101643.78;5078426;28;19924;-71
2021/04/16 09:38:26;;;;;;;;;;;;;;;10.43;55.31;101653.06;5089174;28;20300;-72
2021/04/16 09:41:17;;;;;;;;;;;;;;;10.43;54.68;101644.75;5074411;28;20361;-71
2021/04/16 09:43:43;;;;;;;;;;;;;;;10.27;54.86;101659.59;5050390;28;20007;-72
2021/04/16 09:46:27;;;;;;;;;;;;;;;10.56;55.41;101651.81;5057366;28;19952;-72
2021/04/16 09:48:52;;;;;;;;;;;;;;;10.20;53.41;101651.47;5069562;28;19920;-71
2021/04/16 09:51:18;;;;;;;;;;;;;;;10.22;52.83;101653.97;5057548;28;19923;-71
2021/04/16 09:53:43;;;;;;;;;;;;;;;10.35;53.61;101648.00;5089812;28;19923;-71
2021/04/16 09:56:08;;;;;;;;;;;;;;;10.42;52.34;101648.63;5052753;28;19927;-71
2021/04/16 09:58:42;;;;;;;;;;;;;;;10.34;52.36;101646.34;5093328;28;19919;-71
2021/04/16 10:01:07;;;;;;;;;;;;;;;10.44;51.87;101646.41;5095159;28;19923;-71
2021/04/16 10:03:46;;;;;;;;;;;;;;;10.58;53.38;101645.97;5062282;28;19912;-71
2021/04/16 10:06:15;;;;;;;;;;;;;;;10.67;50.97;101647.13;5049882;28;19920;-71
2021/04/16 10:08:41;;;;;;;;;;;;;;;10.72;50.66;101644.41;5071334;28;19986;-72
2021/04/16 10:11:06;;;;;;;;;;;;;;;10.74;51.91;101654.13;5076202;28;19924;-71
2021/04/16 10:13:33;;;;;;;;;;;;;;;10.88;50.43;101648.94;5043385;28;19962;-71
2021/04/16 10:15:58;;;;;;;;;;;;;;;10.94;49.65;101635.91;5058505;28;19996;-71
2021/04/16 10:18:42;;;;;;;;;;;;;;;11.01;48.78;101630.13;5042893;28;19916;-71
2021/04/16 10:21:13;;;;;;;;;;;;;;;11.08;50.51;101637.09;5074618;28;19999;-71
2021/04/16 10:23:50;;;;;;;;;;;;;;;10.99;48.79;101632.34;5095981;28;19916;-71
2021/04/16 12:39:32;;;;;;;;;;;;;;;11.95;43.37;101586.47;5078290;28;20441;-72
2021/04/16 12:41:58;;;;;;;;;;;;;;;11.88;44.58;101580.38;5078072;28;19920;-72
2021/04/16 12:44:26;;;;;;;;;;;;;;;12.05;44.57;101569.81;5070650;28;19918;-72
2021/04/16 12:46:52;;;;;;;;;;;;;;;11.98;45.99;101572.88;5059437;28;19924;-72
2021/04/16 12:49:17;;;;;;;;;;;;;;;11.71;44.54;101575.03;5069974;28;20364;-72
2021/04/16 12:51:42;;;;;;;;;;;;;;;11.88;44.39;101569.25;5060463;28;19919;-71
2021/04/16 12:54:08;;;;;;;;;;;;;;;11.73;44.35;101575.56;5075422;28;19916;-72
2021/04/16 12:56:34;;;;;;;;;;;;;;;11.85;44.15;101557.53;5060930;28;19920;-72
2021/04/16 12:59:18;;;;;;;;;;;;;;;12.10;45.32;101552.25;5046524;28;19920;-72
2021/04/16 13:01:43;;;;;;;;;;;;;;;11.99;45.07;101562.56;5073171;28;19917;-72
2021/04/16 13:04:09;;;;;;;;;;;;;;;11.69;45.45;101575.28;5079771;28;20292;-72
2021/04/16 13:06:35;;;;;;;;;;;;;;;11.80;45.18;101562.25;5079405;28;19951;-72
2021/04/16 13:09:00;;;;;;;;;;;;;;;11.95;46.55;101562.28;5094899;28;19966;-72
2021/04/16 13:11:27;;;;;;;;;;;;;;;11.99;45.56;101554.22;5079219;28;19920;-72
2021/04/16 13:13:53;;;;;;;;;;;;;;;12.08;45.17;101552.53;5059607;28;19924;-72
2021/04/16 13:16:18;;;;;;;;;;;;;;;12.25;44.23;101552.25;5059250;28;19920;-72
2021/04/16 13:18:44;;;;;;;;;;;;;;;12.25;43.01;101541.09;5058594;28;19912;-72
2021/04/16 13:21:12;;;;;;;;;;;;;;;12.26;43.64;101546.41;5061844;28;19920;-72
2021/04/16 13:23:37;;;;;;;;;;;;;;;12.12;45.16;101550.88;5076004;28;20316;-72
2021/04/16 13:26:04;;;;;;;;;;;;;;;11.89;44.79;101551.41;5075375;28;19913;-72
2021/04/16 13:28:30;;;;;;;;;;;;;;;11.85;45.28;101551.97;5075506;28;20377;-72
2021/04/16 13:30:55;;;;;;;;;;;;;;;11.90;45.35;101550.31;5075797;28;19939;-72
2021/04/16 13:33:21;;;;;;;;;;;;;;;12.00;44.32;101551.13;5094984;28;19912;-72
2021/04/16 13:35:47;;;;;;;;;;;;;;;12.19;44.67;101554.19;5055854;28;19970;-72
2021/04/16 13:38:14;;;;;;;;;;;;;;;12.22;43.84;101545.28;5074778;28;19920;-72
2021/04/16 13:40:39;;;;;;;;;;;;;;;12.51;44.96;101547.47;5066570;28;19995;-72
2021/04/16 13:43:05;;;;;;;;;;;;;;;12.42;43.86;101547.19;5038129;28;19956;-72
2021/04/16 13:45:30;;;;;;;;;;;;;;;12.39;44.71;101552.50;5086941;28;19916;-72
2021/04/16 13:47:55;;;;;;;;;;;;;;;12.06;44.20;101546.41;5094880;28;19995;-72
2021/04/16 13:50:20;;;;;;;;;;;;;;;11.83;44.40;101547.75;5075415;28;19916;-72
2021/04/16 13:52:46;;;;;;;;;;;;;;;11.94;44.83;101551.41;5096140;28;19916;-72
2021/04/16 13:55:12;;;;;;;;;;;;;;;11.74;45.33;101544.69;5058111;28;19916;-72
2021/04/16 13:57:38;;;;;;;;;;;;;;;11.89;45.77;101541.13;5077106;28;19916;-72
2021/04/16 14:00:06;;;;;;;;;;;;;;;12.02;44.91;101534.16;5078033;28;19912;-72
2021/04/16 14:02:32;;;;;;;;;;;;;;;12.17;45.41;101531.34;5055883;28;19939;-72
2021/04/16 14:04:57;;;;;;;;;;;;;;;12.12;43.96;101538.88;5037428;28;19920;-72
2021/04/16 14:07:22;;;;;;;;;;;;;;;11.92;44.04;101531.38;5079463;28;19969;-72
2021/04/16 14:09:48;;;;;;;;;;;;;;;11.89;44.38;101529.97;5056129;28;20420;-72
2021/04/16 14:12:13;;;;;;;;;;;;;;;11.77;43.98;101532.19;5043784;28;19920;-72
2021/04/16 14:14:38;;;;;;;;;;;;;;;11.71;44.43;101525.78;5059798;28;19920;-72
2021/04/16 14:17:07;;;;;;;;;;;;;;;11.58;44.22;101529.09;5091633;28;19920;-72
2021/04/16 14:19:41;;;;;;;;;;;;;;;11.63;44.68;101520.75;5050085;28;19924;-72
2021/04/16 14:22:07;;;;;;;;;;;;;;;11.60;44.96;101515.75;5077878;28;19947;-72
2021/04/16 14:24:32;;;;;;;;;;;;;;;11.54;44.65;101512.13;5053232;28;19920;-72
2021/04/16 14:26:58;;;;;;;;;;;;;;;11.72;44.79;101507.94;5070239;28;19916;-72
2021/04/16 14:29:23;;;;;;;;;;;;;;;11.86;44.18;101505.47;5059162;28;20437;-72
2021/04/16 14:31:48;;;;;;;;;;;;;;;11.76;43.72;101509.09;5054351;28;20011;-72
2021/04/16 14:34:14;;;;;;;;;;;;;;;11.99;44.56;101495.75;5077077;28;20280;-72
2021/04/16 14:36:40;;;;;;;;;;;;;;;11.98;42.88;101502.41;5075721;28;19959;-72
2021/04/16 14:39:05;;;;;;;;;;;;;;;11.79;44.02;101497.41;5073461;28;19916;-72
2021/04/16 14:41:32;;;;;;;;;;;;;;;11.87;43.28;101493.25;5055189;28;19955;-72
2021/04/16 14:43:58;;;;;;;;;;;;;;;11.91;43.32;101486.00;5057564;28;19912;-72
2021/04/16 14:46:23;;;;;;;;;;;;;;;11.76;44.55;101489.59;5068817;28;19920;-72
2021/04/16 14:48:48;;;;;;;;;;;;;;;11.81;43.79;101492.38;5049633;28;20042;-72
2021/04/16 14:51:14;;;;;;;;;;;;;;;11.76;44.63;101492.38;5059876;28;19923;-72
2021/04/16 14:53:47;;;;;;;;;;;;;;;11.77;44.10;101496.00;5053949;28;20421;-72
2021/04/16 14:56:13;;;;;;;;;;;;;;;11.69;44.53;101486.25;5039777;28;19928;-71